Irving, Texas
Current Conditions -  °F | °C
As of 3:53 PM on Monday 20 Oct 2014 (Local Time) from KDAL Reporting Station
Few Clouds Few Clouds  
Wind Chill: 83°   Ceiling: Unl
Heat Index: 83°   Visibility: 10mi
Dew Point: 59°   Wind: 0mph
Humidity: 44%   Direction: NA
Pressure: 30.01"   Gusts: NA
Location:  32.81°N, 96.95°W
Report Text: KDAL 202053Z 00000KT 10SM FEW040 FEW250 28/15 A3001 RMK AO2 SLP156 T02830150 56022
Loading
Personal Weather Stations






























Interactive Weather Map
Tropical Storm Tracking
New forecast layout! Learn more

10-Day Weather Forecast

Advertisements
Track Severe Weather on mobile